sensor_id;sensor_type;location;lat;lon;timestamp;temperature;humidity
290;DHT22;13193;48.874;9.086;2022-10-16T00:01:22;15.30;1.00
290;DHT22;13193;48.874;9.086;2022-10-16T00:03:49;15.30;1.00
290;DHT22;13193;48.874;9.086;2022-10-16T00:06:17;15.30;1.00
290;DHT22;13193;48.874;9.086;2022-10-16T00:08:44;15.30;1.00
290;DHT22;13193;48.874;9.086;2022-10-16T00:11:31;15.20;1.00
290;DHT22;13193;48.874;9.086;2022-10-16T00:14:00;15.20;1.00
290;DHT22;13193;48.874;9.086;2022-10-16T00:16:27;15.20;1.00
290;DHT22;13193;48.874;9.086;2022-10-16T00:18:52;15.20;1.00
290;DHT22;13193;48.874;9.086;2022-10-16T00:21:21;15.20;1.00
290;DHT22;13193;48.874;9.086;2022-10-16T00:23:49;15.20;1.00
290;DHT22;13193;48.874;9.086;2022-10-16T00:26:17;15.20;1.00
290;DHT22;13193;48.874;9.086;2022-10-16T00:28:44;15.20;1.00
290;DHT22;13193;48.874;9.086;2022-10-16T00:31:11;15.20;1.00
290;DHT22;13193;48.874;9.086;2022-10-16T00:33:38;15.20;1.00
290;DHT22;13193;48.874;9.086;2022-10-16T00:36:05;15.20;1.00
290;DHT22;13193;48.874;9.086;2022-10-16T00:38:31;15.20;1.00
290;DHT22;13193;48.874;9.086;2022-10-16T00:40:57;15.20;1.00
290;DHT22;13193;48.874;9.086;2022-10-16T00:46:27;15.20;1.00
290;DHT22;13193;48.874;9.086;2022-10-16T00:49:06;15.20;1.00
290;DHT22;13193;48.874;9.086;2022-10-16T00:51:48;15.30;1.00
290;DHT22;13193;48.874;9.086;2022-10-16T00:54:23;15.30;1.00
290;DHT22;13193;48.874;9.086;2022-10-16T00:56:50;15.30;1.00
290;DHT22;13193;48.874;9.086;2022-10-16T00:59:25;15.30;1.00
290;DHT22;13193;48.874;9.086;2022-10-16T01:01:52;15.30;1.00
290;DHT22;13193;48.874;9.086;2022-10-16T01:04:18;15.30;1.00
290;DHT22;13193;48.874;9.086;2022-10-16T01:09:23;15.30;1.00
290;DHT22;13193;48.874;9.086;2022-10-16T01:17:49;15.40;1.00
290;DHT22;13193;48.874;9.086;2022-10-16T01:20:31;15.40;1.00
290;DHT22;13193;48.874;9.086;2022-10-16T01:23:27;15.50;1.00
290;DHT22;13193;48.874;9.086;2022-10-16T01:28:55;15.50;1.00
290;DHT22;13193;48.874;9.086;2022-10-16T01:31:26;15.50;1.00
290;DHT22;13193;48.874;9.086;2022-10-16T01:34:13;15.50;1.00
290;DHT22;13193;48.874;9.086;2022-10-16T01:36:45;15.60;1.00
290;DHT22;13193;48.874;9.086;2022-10-16T01:39:13;15.70;1.00
290;DHT22;13193;48.874;9.086;2022-10-16T01:41:44;15.70;1.00
290;DHT22;13193;48.874;9.086;2022-10-16T01:44:20;15.70;1.00
290;DHT22;13193;48.874;9.086;2022-10-16T01:46:49;15.70;1.00
290;DHT22;13193;48.874;9.086;2022-10-16T01:49:16;15.70;1.00
290;DHT22;13193;48.874;9.086;2022-10-16T01:51:45;15.70;1.00
290;DHT22;13193;48.874;9.086;2022-10-16T01:54:14;15.70;1.00
290;DHT22;13193;48.874;9.086;2022-10-16T01:56:42;15.70;1.00
290;DHT22;13193;48.874;9.086;2022-10-16T01:59:13;15.80;1.00
290;DHT22;13193;48.874;9.086;2022-10-16T02:01:44;15.80;1.00
290;DHT22;13193;48.874;9.086;2022-10-16T02:04:26;15.80;1.00
290;DHT22;13193;48.874;9.086;2022-10-16T02:06:53;15.80;1.00
290;DHT22;13193;48.874;9.086;2022-10-16T02:09:19;15.90;1.00
290;DHT22;13193;48.874;9.086;2022-10-16T02:11:45;16.00;1.00
290;DHT22;13193;48.874;9.086;2022-10-16T02:14:11;15.90;1.00
290;DHT22;13193;48.874;9.086;2022-10-16T02:16:39;16.00;1.00
290;DHT22;13193;48.874;9.086;2022-10-16T02:19:06;16.00;1.00
290;DHT22;13193;48.874;9.086;2022-10-16T02:21:41;16.00;1.00
290;DHT22;13193;48.874;9.086;2022-10-16T02:29:53;16.00;1.00
290;DHT22;13193;48.874;9.086;2022-10-16T02:32:25;16.10;1.00
290;DHT22;13193;48.874;9.086;2022-10-16T02:34:56;16.10;1.00
290;DHT22;13193;48.874;9.086;2022-10-16T02:37:23;16.00;1.00
290;DHT22;13193;48.874;9.086;2022-10-16T02:39:50;16.00;1.00
290;DHT22;13193;48.874;9.086;2022-10-16T02:42:18;15.90;1.00
290;DHT22;13193;48.874;9.086;2022-10-16T02:44:44;15.90;1.00
290;DHT22;13193;48.874;9.086;2022-10-16T02:47:09;15.90;1.00
290;DHT22;13193;48.874;9.086;2022-10-16T02:49:35;15.90;1.00
290;DHT22;13193;48.874;9.086;2022-10-16T02:52:00;15.90;1.00
290;DHT22;13193;48.874;9.086;2022-10-16T02:54:26;15.80;1.00
290;DHT22;13193;48.874;9.086;2022-10-16T02:56:52;15.80;1.00
290;DHT22;13193;48.874;9.086;2022-10-16T02:59:17;15.80;1.00
290;DHT22;13193;48.874;9.086;2022-10-16T03:01:43;15.70;1.00
290;DHT22;13193;48.874;9.086;2022-10-16T03:04:09;15.70;1.00
290;DHT22;13193;48.874;9.086;2022-10-16T03:06:34;15.70;1.00
290;DHT22;13193;48.874;9.086;2022-10-16T03:09:01;15.70;1.00
290;DHT22;13193;48.874;9.086;2022-10-16T03:11:26;15.60;1.00
290;DHT22;13193;48.874;9.086;2022-10-16T03:13:53;15.60;1.00
290;DHT22;13193;48.874;9.086;2022-10-16T03:16:19;15.50;1.00
290;DHT22;13193;48.874;9.086;2022-10-16T03:18:48;15.50;1.00
290;DHT22;13193;48.874;9.086;2022-10-16T03:21:15;15.50;1.00
290;DHT22;13193;48.874;9.086;2022-10-16T03:23:40;15.50;1.00
290;DHT22;13193;48.874;9.086;2022-10-16T03:26:07;15.40;1.00
290;DHT22;13193;48.874;9.086;2022-10-16T03:28:32;15.40;1.00
290;DHT22;13193;48.874;9.086;2022-10-16T03:30:58;15.40;1.00
290;DHT22;13193;48.874;9.086;2022-10-16T03:33:23;15.30;1.00
290;DHT22;13193;48.874;9.086;2022-10-16T03:35:53;15.30;1.00
290;DHT22;13193;48.874;9.086;2022-10-16T03:38:20;15.30;1.00
290;DHT22;13193;48.874;9.086;2022-10-16T03:40:45;15.30;1.00
290;DHT22;13193;48.874;9.086;2022-10-16T03:43:11;15.20;1.00
290;DHT22;13193;48.874;9.086;2022-10-16T03:45:36;15.20;1.00
290;DHT22;13193;48.874;9.086;2022-10-16T03:48:02;15.20;1.00
290;DHT22;13193;48.874;9.086;2022-10-16T03:50:29;15.20;1.00
290;DHT22;13193;48.874;9.086;2022-10-16T03:52:54;15.20;1.00
290;DHT22;13193;48.874;9.086;2022-10-16T03:55:20;15.20;1.00
290;DHT22;13193;48.874;9.086;2022-10-16T03:57:46;15.20;1.00
290;DHT22;13193;48.874;9.086;2022-10-16T04:00:12;15.20;1.00
290;DHT22;13193;48.874;9.086;2022-10-16T04:02:38;15.20;1.00
290;DHT22;13193;48.874;9.086;2022-10-16T04:05:04;15.20;1.00
290;DHT22;13193;48.874;9.086;2022-10-16T04:07:29;15.20;1.00
290;DHT22;13193;48.874;9.086;2022-10-16T04:09:55;15.20;1.00
290;DHT22;13193;48.874;9.086;2022-10-16T04:12:21;15.10;1.00
290;DHT22;13193;48.874;9.086;2022-10-16T04:14:46;15.10;1.00
290;DHT22;13193;48.874;9.086;2022-10-16T04:17:12;15.10;1.00
290;DHT22;13193;48.874;9.086;2022-10-16T04:19:37;15.10;1.00
290;DHT22;13193;48.874;9.086;2022-10-16T04:22:03;15.10;1.00
290;DHT22;13193;48.874;9.086;2022-10-16T04:24:28;15.00;1.00
290;DHT22;13193;48.874;9.086;2022-10-16T04:26:54;15.00;1.00
290;DHT22;13193;48.874;9.086;2022-10-16T04:29:20;15.10;1.00
290;DHT22;13193;48.874;9.086;2022-10-16T04:31:46;15.10;1.00
290;DHT22;13193;48.874;9.086;2022-10-16T04:34:11;15.10;1.00
290;DHT22;13193;48.874;9.086;2022-10-16T04:36:37;15.10;1.00
290;DHT22;13193;48.874;9.086;2022-10-16T04:39:03;15.20;1.00
290;DHT22;13193;48.874;9.086;2022-10-16T04:41:28;15.20;1.00
290;DHT22;13193;48.874;9.086;2022-10-16T04:43:54;15.10;1.00
290;DHT22;13193;48.874;9.086;2022-10-16T04:46:19;15.20;1.00
290;DHT22;13193;48.874;9.086;2022-10-16T04:48:45;15.20;1.00
290;DHT22;13193;48.874;9.086;2022-10-16T04:51:12;15.20;1.00
290;DHT22;13193;48.874;9.086;2022-10-16T04:53:37;15.30;1.00
290;DHT22;13193;48.874;9.086;2022-10-16T04:56:03;15.30;1.00
290;DHT22;13193;48.874;9.086;2022-10-16T04:58:29;15.30;1.00
290;DHT22;13193;48.874;9.086;2022-10-16T05:00:54;15.30;1.00
290;DHT22;13193;48.874;9.086;2022-10-16T05:03:20;15.30;1.00
290;DHT22;13193;48.874;9.086;2022-10-16T05:05:46;15.30;1.00
290;DHT22;13193;48.874;9.086;2022-10-16T05:08:15;15.30;1.00
290;DHT22;13193;48.874;9.086;2022-10-16T05:10:42;15.30;1.00
290;DHT22;13193;48.874;9.086;2022-10-16T05:13:08;15.30;1.00
290;DHT22;13193;48.874;9.086;2022-10-16T05:15:33;15.30;1.00
290;DHT22;13193;48.874;9.086;2022-10-16T05:17:59;15.30;1.00
290;DHT22;13193;48.874;9.086;2022-10-16T05:20:25;15.30;1.00
290;DHT22;13193;48.874;9.086;2022-10-16T05:22:51;15.30;1.00
290;DHT22;13193;48.874;9.086;2022-10-16T05:25:16;15.30;1.00
290;DHT22;13193;48.874;9.086;2022-10-16T05:27:42;15.20;1.00
290;DHT22;13193;48.874;9.086;2022-10-16T05:30:08;15.20;1.00
290;DHT22;13193;48.874;9.086;2022-10-16T05:32:34;15.20;1.00
290;DHT22;13193;48.874;9.086;2022-10-16T05:35:00;15.10;1.00
290;DHT22;13193;48.874;9.086;2022-10-16T05:37:28;15.30;1.00
290;DHT22;13193;48.874;9.086;2022-10-16T05:39:53;15.10;1.00
290;DHT22;13193;48.874;9.086;2022-10-16T05:42:19;15.10;1.00
290;DHT22;13193;48.874;9.086;2022-10-16T05:44:45;15.10;1.00
290;DHT22;13193;48.874;9.086;2022-10-16T05:47:12;15.10;1.00
290;DHT22;13193;48.874;9.086;2022-10-16T05:49:39;15.10;1.00
290;DHT22;13193;48.874;9.086;2022-10-16T05:52:05;15.10;1.00
290;DHT22;13193;48.874;9.086;2022-10-16T05:54:30;15.10;1.00
290;DHT22;13193;48.874;9.086;2022-10-16T05:56:56;15.10;1.00
290;DHT22;13193;48.874;9.086;2022-10-16T05:59:21;15.10;1.00
290;DHT22;13193;48.874;9.086;2022-10-16T06:01:47;15.20;1.00
290;DHT22;13193;48.874;9.086;2022-10-16T06:04:12;15.20;1.00
290;DHT22;13193;48.874;9.086;2022-10-16T06:06:38;15.20;1.00
290;DHT22;13193;48.874;9.086;2022-10-16T06:09:04;15.20;1.00
290;DHT22;13193;48.874;9.086;2022-10-16T06:11:38;15.20;1.00
290;DHT22;13193;48.874;9.086;2022-10-16T06:14:04;15.30;1.00
290;DHT22;13193;48.874;9.086;2022-10-16T06:17:01;15.30;1.00
290;DHT22;13193;48.874;9.086;2022-10-16T06:19:26;15.30;1.00
290;DHT22;13193;48.874;9.086;2022-10-16T06:21:59;15.30;1.00
290;DHT22;13193;48.874;9.086;2022-10-16T06:24:29;15.40;1.00
290;DHT22;13193;48.874;9.086;2022-10-16T06:26:55;15.40;1.00
290;DHT22;13193;48.874;9.086;2022-10-16T06:29:30;15.40;1.00
290;DHT22;13193;48.874;9.086;2022-10-16T06:32:11;15.90;1.00
290;DHT22;13193;48.874;9.086;2022-10-16T06:34:37;15.50;1.00
290;DHT22;13193;48.874;9.086;2022-10-16T06:37:07;15.60;1.00
290;DHT22;13193;48.874;9.086;2022-10-16T06:39:36;15.70;1.00
290;DHT22;13193;48.874;9.086;2022-10-16T06:42:01;15.90;1.00
290;DHT22;13193;48.874;9.086;2022-10-16T06:44:29;15.90;1.00
290;DHT22;13193;48.874;9.086;2022-10-16T06:47:02;16.00;1.00
290;DHT22;13193;48.874;9.086;2022-10-16T06:49:29;16.20;1.00
290;DHT22;13193;48.874;9.086;2022-10-16T06:51:57;16.50;1.00
290;DHT22;13193;48.874;9.086;2022-10-16T06:54:22;16.30;1.00
290;DHT22;13193;48.874;9.086;2022-10-16T06:56:48;16.40;1.00
290;DHT22;13193;48.874;9.086;2022-10-16T06:59:14;16.50;1.00
290;DHT22;13193;48.874;9.086;2022-10-16T07:01:39;16.70;1.00
290;DHT22;13193;48.874;9.086;2022-10-16T07:04:15;16.80;1.00
290;DHT22;13193;48.874;9.086;2022-10-16T07:06:40;17.00;1.00
290;DHT22;13193;48.874;9.086;2022-10-16T07:09:08;17.10;1.00
290;DHT22;13193;48.874;9.086;2022-10-16T07:11:40;17.20;1.00
290;DHT22;13193;48.874;9.086;2022-10-16T07:14:16;17.20;1.00
290;DHT22;13193;48.874;9.086;2022-10-16T07:16:42;17.30;1.00
290;DHT22;13193;48.874;9.086;2022-10-16T07:19:10;17.30;1.00
290;DHT22;13193;48.874;9.086;2022-10-16T07:21:56;17.40;1.00
290;DHT22;13193;48.874;9.086;2022-10-16T07:24:24;17.30;1.00
290;DHT22;13193;48.874;9.086;2022-10-16T07:26:50;17.40;1.00
290;DHT22;13193;48.874;9.086;2022-10-16T07:29:18;17.30;1.00
290;DHT22;13193;48.874;9.086;2022-10-16T07:31:48;17.30;1.00
290;DHT22;13193;48.874;9.086;2022-10-16T07:34:17;17.30;1.00
290;DHT22;13193;48.874;9.086;2022-10-16T07:36:43;17.30;1.00
290;DHT22;13193;48.874;9.086;2022-10-16T07:39:11;17.20;1.00
290;DHT22;13193;48.874;9.086;2022-10-16T07:41:37;17.20;1.00
290;DHT22;13193;48.874;9.086;2022-10-16T07:44:03;17.20;1.00
290;DHT22;13193;48.874;9.086;2022-10-16T07:46:29;17.30;1.00
290;DHT22;13193;48.874;9.086;2022-10-16T07:49:03;17.30;1.00
290;DHT22;13193;48.874;9.086;2022-10-16T07:51:31;17.50;1.00
290;DHT22;13193;48.874;9.086;2022-10-16T07:53:59;17.60;1.00
290;DHT22;13193;48.874;9.086;2022-10-16T07:56:25;17.20;1.00
290;DHT22;13193;48.874;9.086;2022-10-16T07:58:53;18.10;1.00
290;DHT22;13193;48.874;9.086;2022-10-16T08:01:19;18.30;1.00
290;DHT22;13193;48.874;9.086;2022-10-16T08:03:47;18.50;1.00
290;DHT22;13193;48.874;9.086;2022-10-16T08:06:24;18.80;1.00
290;DHT22;13193;48.874;9.086;2022-10-16T08:08:50;19.00;1.00
290;DHT22;13193;48.874;9.086;2022-10-16T08:11:18;19.20;1.00
290;DHT22;13193;48.874;9.086;2022-10-16T08:13:46;19.30;1.00
290;DHT22;13193;48.874;9.086;2022-10-16T08:16:12;20.00;1.00
290;DHT22;13193;48.874;9.086;2022-10-16T08:18:39;18.80;1.00
290;DHT22;13193;48.874;9.086;2022-10-16T08:21:06;19.70;1.00
290;DHT22;13193;48.874;9.086;2022-10-16T08:23:33;20.10;1.00
290;DHT22;13193;48.874;9.086;2022-10-16T08:26:04;20.00;1.00
290;DHT22;13193;48.874;9.086;2022-10-16T08:28:30;20.20;1.00
290;DHT22;13193;48.874;9.086;2022-10-16T08:31:09;20.40;1.00
290;DHT22;13193;48.874;9.086;2022-10-16T08:33:36;20.50;1.00
290;DHT22;13193;48.874;9.086;2022-10-16T08:36:03;20.70;1.00
290;DHT22;13193;48.874;9.086;2022-10-16T08:38:29;20.80;1.00
290;DHT22;13193;48.874;9.086;2022-10-16T08:41:02;20.90;1.00
290;DHT22;13193;48.874;9.086;2022-10-16T08:48:59;21.10;1.00
290;DHT22;13193;48.874;9.086;2022-10-16T08:51:35;21.30;1.00
290;DHT22;13193;48.874;9.086;2022-10-16T08:54:03;21.40;1.00
290;DHT22;13193;48.874;9.086;2022-10-16T08:56:29;21.60;1.00
290;DHT22;13193;48.874;9.086;2022-10-16T08:58:57;21.70;1.00
290;DHT22;13193;48.874;9.086;2022-10-16T09:01:38;21.80;1.00
290;DHT22;13193;48.874;9.086;2022-10-16T09:07:20;22.00;1.00
290;DHT22;13193;48.874;9.086;2022-10-16T09:15:35;21.80;1.00
290;DHT22;13193;48.874;9.086;2022-10-16T09:18:25;21.80;1.00
290;DHT22;13193;48.874;9.086;2022-10-16T09:23:37;21.70;1.00
290;DHT22;13193;48.874;9.086;2022-10-16T09:26:05;21.60;1.00
290;DHT22;13193;48.874;9.086;2022-10-16T09:28:30;21.40;1.00
290;DHT22;13193;48.874;9.086;2022-10-16T09:30:56;21.10;1.00
290;DHT22;13193;48.874;9.086;2022-10-16T09:33:29;20.90;1.00
290;DHT22;13193;48.874;9.086;2022-10-16T09:35:57;20.80;1.00
290;DHT22;13193;48.874;9.086;2022-10-16T09:38:32;20.70;1.00
290;DHT22;13193;48.874;9.086;2022-10-16T09:41:00;20.60;1.00
290;DHT22;13193;48.874;9.086;2022-10-16T09:43:34;20.50;1.00
290;DHT22;13193;48.874;9.086;2022-10-16T09:46:04;20.60;1.00
290;DHT22;13193;48.874;9.086;2022-10-16T09:48:37;20.50;1.00
290;DHT22;13193;48.874;9.086;2022-10-16T09:51:06;20.70;1.00
290;DHT22;13193;48.874;9.086;2022-10-16T09:53:43;20.90;1.00
290;DHT22;13193;48.874;9.086;2022-10-16T09:56:11;21.00;1.00
290;DHT22;13193;48.874;9.086;2022-10-16T09:58:42;21.10;1.00
290;DHT22;13193;48.874;9.086;2022-10-16T10:01:14;21.20;1.00
290;DHT22;13193;48.874;9.086;2022-10-16T10:03:43;21.30;1.00
290;DHT22;13193;48.874;9.086;2022-10-16T10:06:24;21.40;1.00
290;DHT22;13193;48.874;9.086;2022-10-16T10:08:54;21.30;1.00
290;DHT22;13193;48.874;9.086;2022-10-16T10:11:51;21.30;1.00
290;DHT22;13193;48.874;9.086;2022-10-16T10:14:18;21.30;1.00
290;DHT22;13193;48.874;9.086;2022-10-16T10:16:45;21.20;1.00
290;DHT22;13193;48.874;9.086;2022-10-16T10:19:22;21.30;1.00
290;DHT22;13193;48.874;9.086;2022-10-16T10:21:52;21.40;1.00
290;DHT22;13193;48.874;9.086;2022-10-16T10:24:18;21.50;1.00
290;DHT22;13193;48.874;9.086;2022-10-16T10:27:09;21.70;1.00
290;DHT22;13193;48.874;9.086;2022-10-16T10:30:10;21.80;1.00
290;DHT22;13193;48.874;9.086;2022-10-16T10:32:54;21.80;1.00
290;DHT22;13193;48.874;9.086;2022-10-16T10:35:28;22.00;1.00
290;DHT22;13193;48.874;9.086;2022-10-16T10:41:23;22.40;1.00
290;DHT22;13193;48.874;9.086;2022-10-16T11:06:00;25.00;1.00
290;DHT22;13193;48.874;9.086;2022-10-16T11:08:47;24.90;1.00
290;DHT22;13193;48.874;9.086;2022-10-16T11:11:20;24.90;1.00
290;DHT22;13193;48.874;9.086;2022-10-16T11:16:45;24.30;1.00
290;DHT22;13193;48.874;9.086;2022-10-16T11:19:36;24.00;1.00
290;DHT22;13193;48.874;9.086;2022-10-16T11:27:38;23.20;1.00
290;DHT22;13193;48.874;9.086;2022-10-16T11:30:13;23.20;1.00
290;DHT22;13193;48.874;9.086;2022-10-16T11:40:53;23.40;1.00
290;DHT22;13193;48.874;9.086;2022-10-16T11:43:34;23.50;1.00
290;DHT22;13193;48.874;9.086;2022-10-16T11:46:08;23.60;1.00
290;DHT22;13193;48.874;9.086;2022-10-16T11:56:28;24.00;1.00
290;DHT22;13193;48.874;9.086;2022-10-16T11:59:10;24.10;1.00
290;DHT22;13193;48.874;9.086;2022-10-16T12:01:57;24.30;1.00
290;DHT22;13193;48.874;9.086;2022-10-16T12:07:09;24.50;1.00
290;DHT22;13193;48.874;9.086;2022-10-16T12:09:39;24.60;1.00
290;DHT22;13193;48.874;9.086;2022-10-16T12:12:22;24.60;1.00
290;DHT22;13193;48.874;9.086;2022-10-16T12:14:58;24.60;1.00
290;DHT22;13193;48.874;9.086;2022-10-16T12:17:34;24.60;1.00
290;DHT22;13193;48.874;9.086;2022-10-16T12:20:19;24.50;1.00
290;DHT22;13193;48.874;9.086;2022-10-16T12:22:54;24.50;1.00
290;DHT22;13193;48.874;9.086;2022-10-16T12:28:00;24.50;1.00
290;DHT22;13193;48.874;9.086;2022-10-16T12:30:29;24.40;1.00
290;DHT22;13193;48.874;9.086;2022-10-16T12:33:04;24.40;1.00
290;DHT22;13193;48.874;9.086;2022-10-16T12:35:35;24.30;1.00
290;DHT22;13193;48.874;9.086;2022-10-16T12:40:39;24.20;1.00
290;DHT22;13193;48.874;9.086;2022-10-16T12:43:12;24.10;1.00
290;DHT22;13193;48.874;9.086;2022-10-16T12:45:38;24.20;1.00
290;DHT22;13193;48.874;9.086;2022-10-16T12:48:20;24.20;1.00
290;DHT22;13193;48.874;9.086;2022-10-16T12:50:46;24.20;1.00
290;DHT22;13193;48.874;9.086;2022-10-16T12:53:24;24.20;1.00
290;DHT22;13193;48.874;9.086;2022-10-16T12:59:09;24.10;1.00
290;DHT22;13193;48.874;9.086;2022-10-16T13:09:16;24.50;1.00
290;DHT22;13193;48.874;9.086;2022-10-16T13:29:54;25.00;1.00
290;DHT22;13193;48.874;9.086;2022-10-16T13:32:26;25.00;1.00
290;DHT22;13193;48.874;9.086;2022-10-16T13:34:52;25.00;1.00
290;DHT22;13193;48.874;9.086;2022-10-16T13:37:22;25.00;1.00
290;DHT22;13193;48.874;9.086;2022-10-16T13:39:48;25.00;1.00
290;DHT22;13193;48.874;9.086;2022-10-16T13:42:24;25.00;1.00
290;DHT22;13193;48.874;9.086;2022-10-16T13:44:53;24.90;1.00
290;DHT22;13193;48.874;9.086;2022-10-16T13:47:27;24.90;1.00
290;DHT22;13193;48.874;9.086;2022-10-16T13:50:12;24.80;1.00
290;DHT22;13193;48.874;9.086;2022-10-16T13:52:39;24.70;1.00
290;DHT22;13193;48.874;9.086;2022-10-16T13:55:13;24.60;1.00
290;DHT22;13193;48.874;9.086;2022-10-16T13:57:40;24.50;1.00
290;DHT22;13193;48.874;9.086;2022-10-16T14:02:43;24.30;1.00
290;DHT22;13193;48.874;9.086;2022-10-16T14:05:10;24.10;1.00
290;DHT22;13193;48.874;9.086;2022-10-16T14:07:36;24.10;1.00
290;DHT22;13193;48.874;9.086;2022-10-16T14:10:18;24.00;1.00
290;DHT22;13193;48.874;9.086;2022-10-16T14:12:54;23.90;1.00
290;DHT22;13193;48.874;9.086;2022-10-16T14:15:20;23.70;1.00
290;DHT22;13193;48.874;9.086;2022-10-16T14:17:48;23.60;1.00
290;DHT22;13193;48.874;9.086;2022-10-16T14:20:17;23.50;1.00
290;DHT22;13193;48.874;9.086;2022-10-16T14:22:43;23.50;1.00
290;DHT22;13193;48.874;9.086;2022-10-16T14:25:30;23.50;1.00
290;DHT22;13193;48.874;9.086;2022-10-16T14:28:18;23.50;1.00
290;DHT22;13193;48.874;9.086;2022-10-16T14:30:59;23.50;1.00
290;DHT22;13193;48.874;9.086;2022-10-16T14:36:04;23.50;1.00
290;DHT22;13193;48.874;9.086;2022-10-16T14:38:31;23.50;1.00
290;DHT22;13193;48.874;9.086;2022-10-16T14:40:58;23.50;1.00
290;DHT22;13193;48.874;9.086;2022-10-16T14:45:58;23.50;1.00
290;DHT22;13193;48.874;9.086;2022-10-16T14:48:25;23.50;1.00
290;DHT22;13193;48.874;9.086;2022-10-16T14:50:50;23.50;1.00
290;DHT22;13193;48.874;9.086;2022-10-16T14:53:16;23.50;1.00
290;DHT22;13193;48.874;9.086;2022-10-16T14:55:42;23.50;1.00
290;DHT22;13193;48.874;9.086;2022-10-16T14:58:17;23.50;1.00
290;DHT22;13193;48.874;9.086;2022-10-16T15:00:43;23.40;1.00
290;DHT22;13193;48.874;9.086;2022-10-16T15:03:09;23.40;1.00
290;DHT22;13193;48.874;9.086;2022-10-16T15:05:35;23.30;1.00
290;DHT22;13193;48.874;9.086;2022-10-16T15:08:01;23.20;1.00
290;DHT22;13193;48.874;9.086;2022-10-16T15:10:28;23.20;1.00
290;DHT22;13193;48.874;9.086;2022-10-16T15:12:54;23.20;1.00
290;DHT22;13193;48.874;9.086;2022-10-16T15:17:49;23.00;1.00
290;DHT22;13193;48.874;9.086;2022-10-16T15:20:18;22.90;1.00
290;DHT22;13193;48.874;9.086;2022-10-16T15:22:44;22.80;1.00
290;DHT22;13193;48.874;9.086;2022-10-16T15:27:54;22.50;1.00
290;DHT22;13193;48.874;9.086;2022-10-16T15:30:19;22.40;1.00
290;DHT22;13193;48.874;9.086;2022-10-16T15:32:45;22.30;1.00
290;DHT22;13193;48.874;9.086;2022-10-16T15:35:11;22.30;1.00
290;DHT22;13193;48.874;9.086;2022-10-16T15:37:36;22.20;1.00
290;DHT22;13193;48.874;9.086;2022-10-16T15:40:02;22.10;1.00
290;DHT22;13193;48.874;9.086;2022-10-16T15:42:28;22.00;1.00
290;DHT22;13193;48.874;9.086;2022-10-16T15:44:54;22.00;1.00
290;DHT22;13193;48.874;9.086;2022-10-16T15:47:19;22.00;1.00
290;DHT22;13193;48.874;9.086;2022-10-16T15:49:45;22.10;1.00
290;DHT22;13193;48.874;9.086;2022-10-16T15:52:11;22.10;1.00
290;DHT22;13193;48.874;9.086;2022-10-16T15:54:37;22.10;1.00
290;DHT22;13193;48.874;9.086;2022-10-16T15:57:02;22.00;1.00
290;DHT22;13193;48.874;9.086;2022-10-16T15:59:28;21.90;1.00
290;DHT22;13193;48.874;9.086;2022-10-16T16:01:53;21.90;1.00
290;DHT22;13193;48.874;9.086;2022-10-16T16:04:19;21.70;1.00
290;DHT22;13193;48.874;9.086;2022-10-16T16:06:45;21.60;1.00
290;DHT22;13193;48.874;9.086;2022-10-16T16:09:11;21.40;1.00
290;DHT22;13193;48.874;9.086;2022-10-16T16:11:37;21.30;1.00
290;DHT22;13193;48.874;9.086;2022-10-16T16:14:05;21.10;1.00
290;DHT22;13193;48.874;9.086;2022-10-16T16:16:31;20.90;1.00
290;DHT22;13193;48.874;9.086;2022-10-16T16:19:02;20.80;1.00
290;DHT22;13193;48.874;9.086;2022-10-16T16:21:28;20.60;1.00
290;DHT22;13193;48.874;9.086;2022-10-16T16:23:54;20.40;1.00
290;DHT22;13193;48.874;9.086;2022-10-16T16:26:30;20.30;1.00
290;DHT22;13193;48.874;9.086;2022-10-16T16:29:02;20.20;1.00
290;DHT22;13193;48.874;9.086;2022-10-16T16:31:29;20.00;1.00
290;DHT22;13193;48.874;9.086;2022-10-16T16:33:56;19.90;1.00
290;DHT22;13193;48.874;9.086;2022-10-16T16:36:23;19.80;1.00
290;DHT22;13193;48.874;9.086;2022-10-16T16:38:49;19.70;1.00
290;DHT22;13193;48.874;9.086;2022-10-16T16:41:18;19.60;1.00
290;DHT22;13193;48.874;9.086;2022-10-16T16:43:45;19.60;1.00
290;DHT22;13193;48.874;9.086;2022-10-16T16:46:11;19.50;1.00
290;DHT22;13193;48.874;9.086;2022-10-16T16:48:37;19.50;1.00
290;DHT22;13193;48.874;9.086;2022-10-16T16:51:12;19.40;1.00
290;DHT22;13193;48.874;9.086;2022-10-16T16:53:41;19.30;1.00
290;DHT22;13193;48.874;9.086;2022-10-16T16:56:07;19.30;1.00
290;DHT22;13193;48.874;9.086;2022-10-16T16:58:33;19.20;1.00
290;DHT22;13193;48.874;9.086;2022-10-16T17:01:00;19.10;1.00
290;DHT22;13193;48.874;9.086;2022-10-16T17:03:34;19.00;1.00
290;DHT22;13193;48.874;9.086;2022-10-16T17:06:05;18.90;1.00
290;DHT22;13193;48.874;9.086;2022-10-16T17:08:31;18.80;1.00
290;DHT22;13193;48.874;9.086;2022-10-16T17:10:57;18.50;1.00
290;DHT22;13193;48.874;9.086;2022-10-16T17:13:24;18.40;1.00
290;DHT22;13193;48.874;9.086;2022-10-16T17:15:51;18.20;1.00
290;DHT22;13193;48.874;9.086;2022-10-16T17:18:18;18.00;1.00
290;DHT22;13193;48.874;9.086;2022-10-16T17:20:44;17.90;1.00
290;DHT22;13193;48.874;9.086;2022-10-16T17:23:13;17.80;1.00
290;DHT22;13193;48.874;9.086;2022-10-16T17:25:39;17.60;1.00
290;DHT22;13193;48.874;9.086;2022-10-16T17:28:06;17.60;1.00
290;DHT22;13193;48.874;9.086;2022-10-16T17:30:33;17.40;1.00
290;DHT22;13193;48.874;9.086;2022-10-16T17:33:00;17.40;1.00
290;DHT22;13193;48.874;9.086;2022-10-16T17:35:26;17.20;1.00
290;DHT22;13193;48.874;9.086;2022-10-16T17:37:52;17.10;1.00
290;DHT22;13193;48.874;9.086;2022-10-16T17:40:19;17.00;1.00
290;DHT22;13193;48.874;9.086;2022-10-16T17:42:44;16.90;1.00
290;DHT22;13193;48.874;9.086;2022-10-16T17:45:10;16.80;1.00
290;DHT22;13193;48.874;9.086;2022-10-16T17:47:36;16.70;1.00
290;DHT22;13193;48.874;9.086;2022-10-16T17:50:03;16.60;1.00
290;DHT22;13193;48.874;9.086;2022-10-16T17:52:28;16.50;1.00
290;DHT22;13193;48.874;9.086;2022-10-16T17:54:54;16.40;1.00
290;DHT22;13193;48.874;9.086;2022-10-16T17:57:21;16.40;1.00
290;DHT22;13193;48.874;9.086;2022-10-16T17:59:47;16.30;1.00
290;DHT22;13193;48.874;9.086;2022-10-16T18:02:12;16.20;1.00
290;DHT22;13193;48.874;9.086;2022-10-16T18:04:39;16.20;1.00
290;DHT22;13193;48.874;9.086;2022-10-16T18:07:05;16.10;1.00
290;DHT22;13193;48.874;9.086;2022-10-16T18:09:31;16.00;1.00
290;DHT22;13193;48.874;9.086;2022-10-16T18:11:56;15.90;1.00
290;DHT22;13193;48.874;9.086;2022-10-16T18:14:29;15.90;1.00
290;DHT22;13193;48.874;9.086;2022-10-16T18:16:56;15.80;1.00
290;DHT22;13193;48.874;9.086;2022-10-16T18:19:23;15.80;1.00
290;DHT22;13193;48.874;9.086;2022-10-16T18:21:50;15.80;1.00
290;DHT22;13193;48.874;9.086;2022-10-16T18:24:17;15.80;1.00
290;DHT22;13193;48.874;9.086;2022-10-16T18:26:43;15.80;1.00
290;DHT22;13193;48.874;9.086;2022-10-16T18:29:11;15.70;1.00
290;DHT22;13193;48.874;9.086;2022-10-16T18:31:37;15.70;1.00
290;DHT22;13193;48.874;9.086;2022-10-16T18:34:03;15.70;1.00
290;DHT22;13193;48.874;9.086;2022-10-16T18:36:30;15.60;1.00
290;DHT22;13193;48.874;9.086;2022-10-16T18:39:00;15.60;1.00
290;DHT22;13193;48.874;9.086;2022-10-16T18:41:27;15.50;1.00
290;DHT22;13193;48.874;9.086;2022-10-16T18:43:54;15.50;1.00
290;DHT22;13193;48.874;9.086;2022-10-16T18:46:22;15.40;1.00